Weather at Flamingo International Airport

Public forecast

Using degrees Celsius for public forecast. Weather courtesy of forecast.io.

Current aviation weather report (METAR) for Flamingo International Airport

Retrieved 2021/06/20 23:55 UTC (39 minutes ago):

TNCB 202355Z AUTO 08016KT 9999 FEW015/// 28/24 Q1014

Aviation forecast (TAF) for Flamingo International Airport

Retrieved 2021-06-21 00:11 UTC (23 minutes ago):

TAF TNCB 202317Z 2100/2206 09017KT 9999 SCT018 PROB30 TEMPO 2107/2113 5000 SHRA SCT015CB PROB30 TEMPO 2203/2206 5000 SHRA SCT015CB